Time;durP1;ratioP1;P1;durP2;ratioP2;P2;SDS_P1;SDS_P2;PMS_P1;PMS_P2;Temp;Humidity;BMP_temperature;BMP_pressure;BME280_temperature;BME280_humidity;BME280_pressure;Samples;Min_cycle;Max_cycle;Signal;HPM_P1;HPM_P2
2022/03/21 00:01:21;;;;;;;;;;;10.50;72.60;;;;;;5078161;28;19955;-78
2022/03/21 00:03:47;;;;;;;;;;;10.50;72.60;;;;;;5078199;28;20005;-78
2022/03/21 00:06:13;;;;;;;;;;;10.50;72.80;;;;;;5078096;28;19917;-78
2022/03/21 00:08:39;;;;;;;;;;;10.50;73.00;;;;;;5077953;28;19917;-77
2022/03/21 00:11:05;;;;;;;;;;;10.50;73.30;;;;;;5059074;28;19912;-77
2022/03/21 00:13:30;;;;;;;;;;;10.50;73.30;;;;;;5077122;28;19991;-78
2022/03/21 00:15:56;;;;;;;;;;;10.50;73.50;;;;;;5078045;28;19940;-78
2022/03/21 00:18:23;;;;;;;;;;;10.50;73.60;;;;;;5060072;28;19915;-77
2022/03/21 00:20:50;;;;;;;;;;;10.50;73.60;;;;;;5078154;28;19955;-78
2022/03/21 00:23:17;;;;;;;;;;;10.50;73.50;;;;;;5078006;28;19908;-78
2022/03/21 00:25:43;;;;;;;;;;;10.50;73.60;;;;;;5059075;28;19908;-78
2022/03/21 00:28:09;;;;;;;;;;;10.50;73.60;;;;;;5077802;28;19919;-78
2022/03/21 00:30:36;;;;;;;;;;;10.50;73.60;;;;;;5077992;28;20284;-77
2022/03/21 00:33:02;;;;;;;;;;;10.50;73.50;;;;;;5077708;28;19984;-77
2022/03/21 00:35:28;;;;;;;;;;;10.50;73.60;;;;;;5075764;28;19909;-78
2022/03/21 00:37:54;;;;;;;;;;;10.50;73.30;;;;;;5077877;28;19913;-78
2022/03/21 00:40:21;;;;;;;;;;;10.40;73.50;;;;;;5076664;28;19909;-78
2022/03/21 00:42:47;;;;;;;;;;;10.40;73.20;;;;;;5064695;28;19909;-78
2022/03/21 00:45:15;;;;;;;;;;;10.40;73.20;;;;;;5077534;28;19916;-78
2022/03/21 00:47:41;;;;;;;;;;;10.30;73.50;;;;;;5077721;28;19916;-78
2022/03/21 00:50:08;;;;;;;;;;;10.30;73.80;;;;;;5077653;28;19908;-78
2022/03/21 00:52:52;;;;;;;;;;;10.20;73.60;;;;;;5078432;28;20003;-78
2022/03/21 00:55:19;;;;;;;;;;;10.20;73.60;;;;;;5077377;28;19908;-78
2022/03/21 00:57:45;;;;;;;;;;;10.20;73.60;;;;;;5077657;28;19908;-79
2022/03/21 01:00:12;;;;;;;;;;;10.20;73.70;;;;;;5069521;28;20004;-78
2022/03/21 01:02:39;;;;;;;;;;;10.20;73.70;;;;;;5077599;28;20272;-78
2022/03/21 01:05:05;;;;;;;;;;;10.20;73.60;;;;;;5079076;28;20010;-78
2022/03/21 01:07:31;;;;;;;;;;;10.20;73.80;;;;;;5073207;28;20383;-78
2022/03/21 01:09:57;;;;;;;;;;;10.20;73.80;;;;;;5077008;28;20006;-78
2022/03/21 01:12:23;;;;;;;;;;;10.20;73.40;;;;;;5077631;28;19955;-78
2022/03/21 01:14:48;;;;;;;;;;;10.20;73.80;;;;;;5078213;28;19912;-78
2022/03/21 01:17:14;;;;;;;;;;;10.20;73.90;;;;;;5087872;28;19915;-78
2022/03/21 01:19:40;;;;;;;;;;;10.20;74.00;;;;;;5077358;28;20013;-78
2022/03/21 01:22:06;;;;;;;;;;;10.20;74.10;;;;;;5077395;28;19939;-78
2022/03/21 01:24:35;;;;;;;;;;;10.20;74.10;;;;;;5076943;28;20256;-78
2022/03/21 01:27:05;;;;;;;;;;;10.20;74.10;;;;;;5061741;28;19921;-78
2022/03/21 01:29:30;;;;;;;;;;;10.20;74.40;;;;;;5069780;28;20307;-78
2022/03/21 01:31:56;;;;;;;;;;;10.20;74.40;;;;;;5059516;28;19919;-78
2022/03/21 01:34:21;;;;;;;;;;;10.20;74.30;;;;;;5076170;28;19942;-78
2022/03/21 01:36:47;;;;;;;;;;;10.10;74.40;;;;;;5079236;28;19912;-78
2022/03/21 01:39:13;;;;;;;;;;;10.20;74.80;;;;;;5080155;28;20323;-78
2022/03/21 01:41:38;;;;;;;;;;;10.10;75.00;;;;;;5075879;28;19912;-78
2022/03/21 01:44:05;;;;;;;;;;;10.10;74.90;;;;;;5094896;28;19958;-78
2022/03/21 01:46:31;;;;;;;;;;;10.10;74.60;;;;;;5063085;28;19921;-78
2022/03/21 01:48:57;;;;;;;;;;;10.10;74.70;;;;;;5070809;28;19986;-78
2022/03/21 01:51:24;;;;;;;;;;;10.10;74.80;;;;;;5082064;28;20365;-77
2022/03/21 01:56:36;;;;;;;;;;;10.00;74.30;;;;;;5081862;28;19915;-77
2022/03/21 01:59:02;;;;;;;;;;;9.90;74.20;;;;;;5091981;28;20391;-77
2022/03/21 02:01:28;;;;;;;;;;;9.90;74.30;;;;;;5088769;28;19908;-77
2022/03/21 02:03:53;;;;;;;;;;;9.90;74.60;;;;;;5082956;28;19916;-77
2022/03/21 02:06:21;;;;;;;;;;;9.80;74.70;;;;;;5081323;28;19935;-77
2022/03/21 02:08:47;;;;;;;;;;;9.80;74.80;;;;;;5082279;28;19935;-77
2022/03/21 02:11:15;;;;;;;;;;;9.80;74.30;;;;;;5080737;28;19955;-77
2022/03/21 02:13:41;;;;;;;;;;;9.80;74.70;;;;;;5084901;28;20450;-77
2022/03/21 02:16:08;;;;;;;;;;;9.70;74.90;;;;;;5091762;28;19935;-77
2022/03/21 02:18:34;;;;;;;;;;;9.70;74.80;;;;;;5080703;28;19913;-77
2022/03/21 02:21:01;;;;;;;;;;;9.70;74.60;;;;;;5080758;28;19913;-77
2022/03/21 02:23:35;;;;;;;;;;;9.70;74.60;;;;;;5080768;28;20398;-77
2022/03/21 02:26:01;;;;;;;;;;;9.60;74.30;;;;;;5062328;28;19962;-77
2022/03/21 02:28:28;;;;;;;;;;;9.60;74.50;;;;;;5062464;28;19955;-77
2022/03/21 02:30:55;;;;;;;;;;;9.50;75.20;;;;;;5083470;28;20420;-76
2022/03/21 02:33:21;;;;;;;;;;;9.50;75.30;;;;;;5070073;28;20401;-76
2022/03/21 02:35:48;;;;;;;;;;;9.50;75.30;;;;;;5077430;28;19908;-76
2022/03/21 02:38:13;;;;;;;;;;;9.40;75.20;;;;;;5080409;28;19935;-76
2022/03/21 02:40:40;;;;;;;;;;;9.40;75.10;;;;;;5078684;28;20395;-76
2022/03/21 02:43:05;;;;;;;;;;;9.40;75.10;;;;;;5062528;28;19913;-76
2022/03/21 02:45:31;;;;;;;;;;;9.30;74.90;;;;;;5066229;28;19920;-76
2022/03/21 02:47:57;;;;;;;;;;;9.30;75.20;;;;;;5080022;28;19969;-76
2022/03/21 02:50:31;;;;;;;;;;;9.30;75.50;;;;;;5081041;28;19913;-77
2022/03/21 02:52:57;;;;;;;;;;;9.20;75.40;;;;;;5079967;28;20325;-77
2022/03/21 02:55:23;;;;;;;;;;;9.20;75.70;;;;;;5080653;28;19919;-77
2022/03/21 02:57:49;;;;;;;;;;;9.20;75.90;;;;;;5071024;28;19910;-77
2022/03/21 03:00:15;;;;;;;;;;;9.20;75.70;;;;;;5080508;28;19919;-78
2022/03/21 03:02:40;;;;;;;;;;;9.10;76.10;;;;;;5080297;28;19913;-77
2022/03/21 03:05:07;;;;;;;;;;;9.10;76.00;;;;;;5077709;28;20439;-77
2022/03/21 03:07:32;;;;;;;;;;;9.10;75.40;;;;;;5081829;28;19984;-76
2022/03/21 03:09:58;;;;;;;;;;;9.10;75.30;;;;;;5080631;28;20011;-76
2022/03/21 03:12:23;;;;;;;;;;;9.00;75.00;;;;;;5077538;28;19912;-76
2022/03/21 03:14:49;;;;;;;;;;;9.00;74.90;;;;;;5095105;28;19923;-76
2022/03/21 03:17:17;;;;;;;;;;;9.00;75.50;;;;;;5085503;28;19912;-76
2022/03/21 03:19:43;;;;;;;;;;;8.90;75.10;;;;;;5079598;28;19921;-76
2022/03/21 03:22:10;;;;;;;;;;;8.90;75.60;;;;;;5061546;28;19977;-76
2022/03/21 03:24:36;;;;;;;;;;;8.90;76.30;;;;;;5062238;28;19912;-76
2022/03/21 03:27:02;;;;;;;;;;;8.90;76.20;;;;;;5083038;28;19956;-76
2022/03/21 03:29:27;;;;;;;;;;;8.80;76.40;;;;;;5079329;28;19913;-76
2022/03/21 03:31:53;;;;;;;;;;;8.80;76.70;;;;;;5061454;28;19913;-76
2022/03/21 03:34:19;;;;;;;;;;;8.80;76.50;;;;;;5076939;28;19913;-76
2022/03/21 03:36:44;;;;;;;;;;;8.80;76.40;;;;;;5086563;28;19920;-76
2022/03/21 03:39:10;;;;;;;;;;;8.70;76.70;;;;;;5080025;28;19920;-76
2022/03/21 03:41:36;;;;;;;;;;;8.70;76.50;;;;;;5078679;28;19909;-76
2022/03/21 03:44:01;;;;;;;;;;;8.70;76.50;;;;;;5079014;28;19979;-76
2022/03/21 03:46:27;;;;;;;;;;;8.70;76.30;;;;;;5078712;28;20003;-76
2022/03/21 03:48:54;;;;;;;;;;;8.60;76.20;;;;;;5079916;28;19916;-77
2022/03/21 03:51:20;;;;;;;;;;;8.60;77.00;;;;;;5079188;28;19909;-77
2022/03/21 03:53:45;;;;;;;;;;;8.60;77.20;;;;;;5085208;28;20393;-77
2022/03/21 03:56:11;;;;;;;;;;;8.50;77.20;;;;;;5060756;28;19908;-77
2022/03/21 03:58:37;;;;;;;;;;;8.60;78.10;;;;;;5082407;28;19913;-77
2022/03/21 04:01:04;;;;;;;;;;;8.50;78.10;;;;;;5085380;28;19909;-77
2022/03/21 04:03:46;;;;;;;;;;;8.50;78.20;;;;;;5082712;28;19913;-77
2022/03/21 04:06:13;;;;;;;;;;;8.50;78.20;;;;;;5067324;28;19916;-77
2022/03/21 04:08:38;;;;;;;;;;;8.50;78.20;;;;;;5076935;28;20003;-77
2022/03/21 04:11:04;;;;;;;;;;;8.40;78.10;;;;;;5081573;28;19958;-77
2022/03/21 04:13:30;;;;;;;;;;;8.40;77.80;;;;;;5081170;28;20438;-77
2022/03/21 04:15:55;;;;;;;;;;;8.40;78.10;;;;;;5063926;28;19912;-77
2022/03/21 04:18:21;;;;;;;;;;;8.40;78.60;;;;;;5069321;28;20275;-77
2022/03/21 04:20:50;;;;;;;;;;;8.40;79.20;;;;;;5081897;28;20366;-77
2022/03/21 04:23:17;;;;;;;;;;;8.30;79.30;;;;;;5060388;28;19930;-78
2022/03/21 04:25:43;;;;;;;;;;;8.30;79.40;;;;;;5060071;28;19912;-78
2022/03/21 04:28:10;;;;;;;;;;;8.30;79.70;;;;;;5082667;28;20371;-78
2022/03/21 04:30:36;;;;;;;;;;;8.30;79.70;;;;;;5061644;28;19913;-78
2022/03/21 04:33:02;;;;;;;;;;;8.30;79.70;;;;;;5078290;28;20401;-78
2022/03/21 04:35:28;;;;;;;;;;;8.20;79.80;;;;;;5070483;28;19912;-77
2022/03/21 04:37:55;;;;;;;;;;;8.20;80.40;;;;;;5095091;28;19923;-77
2022/03/21 04:40:21;;;;;;;;;;;8.20;80.50;;;;;;5076461;28;19909;-78
2022/03/21 04:42:46;;;;;;;;;;;8.20;80.40;;;;;;5079756;28;19912;-78
2022/03/21 04:45:12;;;;;;;;;;;8.20;80.10;;;;;;5078295;28;19948;-78
2022/03/21 04:47:38;;;;;;;;;;;8.20;80.10;;;;;;5085496;28;19916;-77
2022/03/21 04:50:03;;;;;;;;;;;8.10;79.70;;;;;;5078090;28;19909;-78
2022/03/21 04:52:29;;;;;;;;;;;8.10;80.10;;;;;;5083234;28;19912;-78
2022/03/21 04:54:55;;;;;;;;;;;8.10;79.80;;;;;;5087797;28;20318;-78
2022/03/21 04:57:22;;;;;;;;;;;8.10;79.80;;;;;;5079098;28;19912;-78
2022/03/21 04:59:48;;;;;;;;;;;8.10;79.80;;;;;;5089413;28;19912;-78
2022/03/21 05:02:13;;;;;;;;;;;8.00;80.00;;;;;;5080889;28;20326;-78
2022/03/21 05:04:39;;;;;;;;;;;8.00;80.60;;;;;;5079406;28;19967;-78
2022/03/21 05:07:06;;;;;;;;;;;8.00;80.60;;;;;;5079976;28;19923;-78
2022/03/21 05:09:32;;;;;;;;;;;8.00;80.40;;;;;;5085594;28;20016;-78
2022/03/21 05:11:57;;;;;;;;;;;8.00;81.10;;;;;;5079170;28;19999;-78
2022/03/21 05:14:23;;;;;;;;;;;7.90;81.30;;;;;;5064148;28;19912;-78
2022/03/21 05:16:49;;;;;;;;;;;7.90;80.70;;;;;;5084711;28;19999;-78
2022/03/21 05:19:15;;;;;;;;;;;7.80;80.60;;;;;;5090235;28;19940;-78
2022/03/21 05:21:41;;;;;;;;;;;7.80;80.40;;;;;;5080170;28;19908;-78
2022/03/21 05:32:21;;;;;;;;;;;7.70;81.30;;;;;;5086940;28;19919;-79
2022/03/21 05:37:30;;;;;;;;;;;7.70;81.70;;;;;;5077021;28;19928;-78
2022/03/21 05:42:40;;;;;;;;;;;7.70;82.80;;;;;;5086796;28;19923;-78
2022/03/21 05:45:06;;;;;;;;;;;7.70;82.30;;;;;;5063051;28;20387;-80
2022/03/21 05:48:50;;;;;;;;;;;7.70;82.30;;;;;;5083893;28;20294;-77
2022/03/21 05:50:17;;;;;;;;;;;7.70;82.20;;;;;;5082303;28;19916;-78
2022/03/21 05:52:43;;;;;;;;;;;7.70;82.00;;;;;;5083707;28;19919;-77
2022/03/21 05:55:09;;;;;;;;;;;7.60;81.90;;;;;;5081710;28;19971;-78
2022/03/21 05:57:34;;;;;;;;;;;7.60;82.40;;;;;;5082643;28;19956;-76
2022/03/21 06:02:44;;;;;;;;;;;7.60;82.00;;;;;;5079650;28;19919;-80
2022/03/21 06:05:10;;;;;;;;;;;7.60;82.40;;;;;;5078776;28;19916;-80
2022/03/21 06:07:36;;;;;;;;;;;7.60;82.60;;;;;;5058082;28;19950;-81
2022/03/21 06:10:01;;;;;;;;;;;7.60;83.00;;;;;;5075566;28;19920;-80
2022/03/21 06:12:27;;;;;;;;;;;7.60;83.10;;;;;;5078129;28;19921;-79
2022/03/21 06:14:53;;;;;;;;;;;7.50;83.00;;;;;;5076921;28;19912;-78
2022/03/21 06:17:18;;;;;;;;;;;7.50;83.00;;;;;;5091219;28;19918;-72
2022/03/21 06:19:44;;;;;;;;;;;7.50;83.30;;;;;;5087298;28;19913;-80
2022/03/21 06:22:09;;;;;;;;;;;7.50;83.70;;;;;;5091886;28;20404;-79
2022/03/21 06:24:35;;;;;;;;;;;7.50;84.00;;;;;;5082337;28;20429;-77
2022/03/21 06:27:01;;;;;;;;;;;7.50;83.90;;;;;;5081257;28;19913;-83
2022/03/21 06:29:28;;;;;;;;;;;7.50;84.20;;;;;;5081250;28;20062;-75
2022/03/21 06:31:53;;;;;;;;;;;7.50;84.10;;;;;;5081662;28;19917;-77
2022/03/21 06:34:19;;;;;;;;;;;7.50;84.00;;;;;;5083620;28;19920;-76
2022/03/21 06:36:45;;;;;;;;;;;7.50;84.60;;;;;;5086969;28;19912;-78
2022/03/21 06:39:11;;;;;;;;;;;7.50;84.60;;;;;;5080224;28;19931;-78
2022/03/21 06:41:38;;;;;;;;;;;7.60;84.40;;;;;;5067681;28;20447;-83
2022/03/21 06:44:04;;;;;;;;;;;7.60;84.70;;;;;;5084568;28;19963;-85
2022/03/21 06:46:29;;;;;;;;;;;7.60;84.60;;;;;;5074941;28;19920;-86
2022/03/21 06:48:55;;;;;;;;;;;7.70;85.00;;;;;;5075461;28;20024;-82
2022/03/21 06:51:21;;;;;;;;;;;7.70;85.20;;;;;;5096868;28;19913;-78
2022/03/21 06:53:46;;;;;;;;;;;7.70;84.90;;;;;;5087709;28;19916;-76
2022/03/21 06:56:12;;;;;;;;;;;7.80;85.20;;;;;;5086744;28;19912;-74
2022/03/21 06:58:37;;;;;;;;;;;7.80;85.30;;;;;;5091191;28;20386;-79
2022/03/21 07:01:03;;;;;;;;;;;7.80;84.60;;;;;;5082623;28;19916;-80
2022/03/21 07:03:29;;;;;;;;;;;7.90;84.50;;;;;;5063555;28;19912;-80
2022/03/21 07:05:55;;;;;;;;;;;7.90;84.50;;;;;;5062529;28;19981;-78
2022/03/21 07:08:20;;;;;;;;;;;8.00;84.50;;;;;;5076809;28;20338;-77
2022/03/21 07:10:46;;;;;;;;;;;8.00;84.30;;;;;;5079415;28;19909;-80
2022/03/21 07:13:12;;;;;;;;;;;8.10;84.40;;;;;;5081326;28;19912;-80
2022/03/21 07:15:37;;;;;;;;;;;8.20;84.10;;;;;;5085728;28;19919;-80
2022/03/21 07:18:04;;;;;;;;;;;8.30;84.10;;;;;;5084370;28;20407;-78
2022/03/21 07:20:29;;;;;;;;;;;8.30;84.10;;;;;;5081932;28;19948;-80
2022/03/21 07:22:56;;;;;;;;;;;8.40;84.10;;;;;;5085068;28;20005;-79
2022/03/21 07:25:22;;;;;;;;;;;8.40;84.10;;;;;;5085096;28;19920;-86
2022/03/21 07:27:47;;;;;;;;;;;8.50;84.00;;;;;;5084199;28;19916;-86
2022/03/21 07:30:13;;;;;;;;;;;8.60;84.00;;;;;;5081338;28;20015;-83
2022/03/21 07:32:40;;;;;;;;;;;8.60;83.70;;;;;;5068900;28;19914;-80
2022/03/21 07:35:05;;;;;;;;;;;8.70;84.30;;;;;;5056252;28;20359;-81
2022/03/21 07:37:46;;;;;;;;;;;8.80;84.10;;;;;;5074246;28;19913;-82
2022/03/21 07:40:12;;;;;;;;;;;8.80;84.00;;;;;;5083020;28;20252;-86
2022/03/21 07:42:38;;;;;;;;;;;8.90;83.80;;;;;;5084909;28;19912;-76
2022/03/21 07:47:49;;;;;;;;;;;9.10;83.90;;;;;;5084400;28;20394;-78
2022/03/21 07:50:14;;;;;;;;;;;9.10;83.30;;;;;;5074320;28;19912;-81
2022/03/21 07:52:40;;;;;;;;;;;9.20;83.40;;;;;;5073419;28;19917;-80
2022/03/21 07:55:06;;;;;;;;;;;9.30;84.00;;;;;;5078783;28;19962;-80
2022/03/21 07:57:32;;;;;;;;;;;9.40;83.90;;;;;;5079928;28;19916;-80
2022/03/21 07:59:57;;;;;;;;;;;9.50;84.00;;;;;;5062635;28;20356;-80
2022/03/21 08:02:25;;;;;;;;;;;9.60;84.20;;;;;;5078713;28;19965;-80
2022/03/21 08:04:52;;;;;;;;;;;9.70;84.00;;;;;;5091637;28;20007;-85
2022/03/21 08:07:17;;;;;;;;;;;9.70;84.30;;;;;;5078153;28;19912;-79
2022/03/21 08:09:43;;;;;;;;;;;9.90;84.00;;;;;;5072864;28;20001;-76
2022/03/21 08:12:10;;;;;;;;;;;10.00;84.30;;;;;;5087302;28;20424;-73
2022/03/21 08:14:36;;;;;;;;;;;10.10;84.20;;;;;;5076925;28;20027;-79
2022/03/21 08:17:04;;;;;;;;;;;10.20;84.40;;;;;;5089960;28;19916;-78
2022/03/21 08:19:30;;;;;;;;;;;10.30;84.20;;;;;;5083721;28;19955;-76
2022/03/21 08:21:56;;;;;;;;;;;10.40;84.00;;;;;;5075799;28;19913;-78
2022/03/21 08:24:22;;;;;;;;;;;10.60;83.70;;;;;;5050347;28;19935;-77
2022/03/21 08:26:48;;;;;;;;;;;10.70;83.50;;;;;;5080938;28;19986;-76
2022/03/21 08:29:15;;;;;;;;;;;11.10;84.40;;;;;;5085012;28;19921;-77
2022/03/21 08:31:41;;;;;;;;;;;11.70;85.00;;;;;;5078280;28;19928;-79
2022/03/21 08:34:07;;;;;;;;;;;12.40;83.30;;;;;;5082073;28;19917;-78
2022/03/21 08:36:32;;;;;;;;;;;13.10;81.20;;;;;;5078273;28;20439;-79
2022/03/21 08:38:59;;;;;;;;;;;13.80;78.70;;;;;;5050656;28;19921;-80
2022/03/21 08:41:25;;;;;;;;;;;14.30;77.60;;;;;;5067198;28;19915;-79
2022/03/21 08:43:51;;;;;;;;;;;14.90;77.20;;;;;;5083343;28;19999;-79
2022/03/21 08:46:16;;;;;;;;;;;15.40;76.50;;;;;;5072993;28;19929;-79
2022/03/21 08:51:26;;;;;;;;;;;16.40;71.10;;;;;;5077849;28;20008;-76
2022/03/21 08:53:53;;;;;;;;;;;16.80;69.60;;;;;;5082699;28;19940;-75
2022/03/21 08:56:19;;;;;;;;;;;17.10;68.10;;;;;;5068963;28;19912;-78
2022/03/21 08:58:44;;;;;;;;;;;17.50;67.40;;;;;;5079065;28;19912;-74
2022/03/21 09:01:10;;;;;;;;;;;17.70;67.40;;;;;;5068826;28;19923;-76
2022/03/21 09:03:36;;;;;;;;;;;18.00;67.00;;;;;;5076430;28;19912;-76
2022/03/21 09:06:01;;;;;;;;;;;18.30;66.50;;;;;;5077067;28;20432;-77
2022/03/21 09:08:27;;;;;;;;;;;18.60;64.20;;;;;;5077290;28;20019;-76
2022/03/21 09:10:53;;;;;;;;;;;18.90;65.10;;;;;;5075959;28;19909;-76
2022/03/21 09:13:19;;;;;;;;;;;19.30;65.00;;;;;;5076366;28;19909;-76
2022/03/21 09:15:44;;;;;;;;;;;19.70;65.70;;;;;;5076624;28;19909;-76
2022/03/21 09:18:10;;;;;;;;;;;20.10;62.90;;;;;;5075451;28;19913;-76
2022/03/21 09:20:36;;;;;;;;;;;20.50;62.00;;;;;;5076941;28;19909;-75
2022/03/21 09:23:01;;;;;;;;;;;20.80;62.10;;;;;;5076580;28;19915;-76
2022/03/21 09:25:27;;;;;;;;;;;21.10;63.30;;;;;;5076247;28;19908;-76
2022/03/21 09:27:53;;;;;;;;;;;21.40;59.10;;;;;;5058596;28;19919;-77
2022/03/21 09:30:18;;;;;;;;;;;21.50;57.90;;;;;;5076814;28;19919;-77
2022/03/21 09:32:44;;;;;;;;;;;21.60;57.60;;;;;;5076290;28;19995;-77
2022/03/21 09:35:10;;;;;;;;;;;21.70;57.80;;;;;;5045966;28;19966;-77
2022/03/21 09:37:36;;;;;;;;;;;21.90;58.10;;;;;;5076361;28;19909;-76
2022/03/21 09:40:02;;;;;;;;;;;22.30;59.00;;;;;;5075334;28;19915;-77
2022/03/21 09:42:28;;;;;;;;;;;22.50;55.80;;;;;;5076568;28;20438;-78
2022/03/21 09:44:54;;;;;;;;;;;22.70;55.80;;;;;;5076414;28;20299;-77
2022/03/21 09:50:08;;;;;;;;;;;23.10;54.50;;;;;;5076985;28;20332;-78
2022/03/21 09:52:33;;;;;;;;;;;23.20;54.40;;;;;;5076563;28;19913;-77
2022/03/21 09:54:59;;;;;;;;;;;23.30;55.10;;;;;;5058438;28;19909;-77
2022/03/21 09:57:26;;;;;;;;;;;23.60;55.80;;;;;;5078771;28;19913;-78
2022/03/21 09:59:52;;;;;;;;;;;23.90;54.90;;;;;;5080844;28;20260;-78
2022/03/21 10:02:18;;;;;;;;;;;24.20;53.50;;;;;;5062969;28;19915;-77
2022/03/21 10:04:44;;;;;;;;;;;24.30;53.70;;;;;;5080831;28;19987;-77
2022/03/21 10:07:10;;;;;;;;;;;24.40;53.10;;;;;;5067407;28;19912;-77
2022/03/21 10:09:36;;;;;;;;;;;24.60;51.00;;;;;;5080641;28;19909;-77
2022/03/21 10:12:03;;;;;;;;;;;24.60;50.90;;;;;;5080732;28;19908;-77
2022/03/21 10:14:33;;;;;;;;;;;24.60;50.60;;;;;;5080602;28;19909;-77
2022/03/21 10:17:00;;;;;;;;;;;24.70;50.70;;;;;;5083208;28;19953;-77
2022/03/21 10:19:27;;;;;;;;;;;24.70;51.20;;;;;;5080645;28;20364;-77
2022/03/21 10:22:21;;;;;;;;;;;24.80;52.00;;;;;;5081009;28;19908;-77
2022/03/21 10:24:48;;;;;;;;;;;24.90;49.70;;;;;;5085546;28;19919;-78
2022/03/21 10:27:31;;;;;;;;;;;25.00;50.00;;;;;;5063470;28;20024;-78
2022/03/21 10:30:00;;;;;;;;;;;25.00;50.90;;;;;;5082413;28;19919;-77
2022/03/21 10:32:39;;;;;;;;;;;25.30;51.30;;;;;;5083573;28;19908;-79
2022/03/21 10:35:05;;;;;;;;;;;25.50;50.20;;;;;;5077437;28;19919;-78
2022/03/21 10:37:41;;;;;;;;;;;25.70;50.00;;;;;;5048976;28;19909;-78
2022/03/21 10:40:15;;;;;;;;;;;25.90;50.60;;;;;;5061337;28;19913;-78
2022/03/21 10:42:55;;;;;;;;;;;26.00;50.00;;;;;;5049721;28;19915;-78
2022/03/21 10:45:22;;;;;;;;;;;26.10;48.20;;;;;;5080096;28;19928;-77
2022/03/21 10:47:48;;;;;;;;;;;26.10;47.90;;;;;;5078652;28;19958;-78
2022/03/21 10:50:14;;;;;;;;;;;26.10;50.10;;;;;;5062013;28;19909;-78
2022/03/21 10:52:40;;;;;;;;;;;26.20;47.90;;;;;;5080353;28;19919;-78
2022/03/21 10:55:06;;;;;;;;;;;26.20;47.90;;;;;;5079706;28;19909;-79
2022/03/21 10:57:32;;;;;;;;;;;26.10;47.80;;;;;;5080144;28;19909;-77
2022/03/21 11:00:16;;;;;;;;;;;26.10;48.10;;;;;;5079970;28;19916;-78
2022/03/21 11:02:52;;;;;;;;;;;26.10;48.20;;;;;;5079877;28;19962;-78
2022/03/21 11:05:19;;;;;;;;;;;26.20;49.30;;;;;;5067797;28;19987;-77
2022/03/21 11:07:48;;;;;;;;;;;26.30;47.30;;;;;;5061478;28;19912;-79
2022/03/21 11:10:14;;;;;;;;;;;26.30;47.70;;;;;;5078761;28;20342;-79
2022/03/21 11:12:42;;;;;;;;;;;26.40;47.60;;;;;;5079761;28;19909;-79
2022/03/21 11:15:12;;;;;;;;;;;26.40;47.20;;;;;;5079725;28;20444;-79
2022/03/21 11:17:37;;;;;;;;;;;26.40;47.10;;;;;;5079596;28;19971;-78
2022/03/21 11:20:04;;;;;;;;;;;26.30;46.50;;;;;;5079779;28;20366;-80
2022/03/21 11:22:30;;;;;;;;;;;26.30;48.30;;;;;;5079403;28;19961;-79
2022/03/21 11:25:04;;;;;;;;;;;26.40;47.40;;;;;;5079254;28;19908;-79
2022/03/21 11:27:50;;;;;;;;;;;26.50;47.30;;;;;;5078996;28;20420;-79
2022/03/21 11:30:15;;;;;;;;;;;26.50;47.70;;;;;;5079383;28;19908;-81
2022/03/21 11:33:00;;;;;;;;;;;26.60;47.60;;;;;;5079387;28;19916;-81
2022/03/21 11:35:28;;;;;;;;;;;26.70;47.30;;;;;;5082941;28;19998;-83
2022/03/21 11:37:55;;;;;;;;;;;26.70;46.90;;;;;;5084458;28;19916;-77
2022/03/21 11:40:28;;;;;;;;;;;26.70;46.50;;;;;;5078647;28;20366;-79
2022/03/21 11:42:56;;;;;;;;;;;26.60;47.30;;;;;;5079000;28;20019;-81
2022/03/21 11:45:25;;;;;;;;;;;26.60;47.20;;;;;;5075820;28;19992;-83
2022/03/21 11:48:11;;;;;;;;;;;26.70;47.80;;;;;;5082776;28;19917;-81
2022/03/21 11:50:37;;;;;;;;;;;26.80;47.90;;;;;;5054994;28;19915;-79
2022/03/21 11:53:07;;;;;;;;;;;26.90;47.80;;;;;;5067668;28;20007;-77
2022/03/21 11:55:36;;;;;;;;;;;27.10;47.20;;;;;;5078560;28;20398;-79
2022/03/21 11:58:21;;;;;;;;;;;27.30;47.10;;;;;;5082805;28;19919;-81
2022/03/21 12:01:02;;;;;;;;;;;27.50;47.30;;;;;;5086129;28;19953;-80
2022/03/21 12:03:28;;;;;;;;;;;27.60;47.30;;;;;;5080234;28;19912;-82
2022/03/21 12:05:54;;;;;;;;;;;27.60;46.80;;;;;;5078813;28;19920;-78
2022/03/21 12:08:32;;;;;;;;;;;27.60;46.90;;;;;;5086865;28;20318;-78
2022/03/21 12:10:58;;;;;;;;;;;27.60;47.50;;;;;;5086804;28;19912;-78
2022/03/21 12:13:24;;;;;;;;;;;27.50;45.60;;;;;;5078522;28;20385;-80
2022/03/21 12:15:50;;;;;;;;;;;27.40;46.10;;;;;;5079871;28;19919;-78
2022/03/21 12:18:16;;;;;;;;;;;27.50;47.00;;;;;;5087570;28;20393;-83
2022/03/21 12:20:46;;;;;;;;;;;27.30;45.80;;;;;;5081601;28;20007;-83
2022/03/21 12:23:19;;;;;;;;;;;27.20;45.40;;;;;;5078425;28;20486;-80
2022/03/21 12:25:48;;;;;;;;;;;27.00;46.80;;;;;;5077984;28;20382;-75
2022/03/21 12:31:25;;;;;;;;;;;26.90;46.80;;;;;;5078316;28;19954;-79
2022/03/21 12:33:51;;;;;;;;;;;27.10;47.60;;;;;;5080895;28;20008;-78
2022/03/21 12:36:30;;;;;;;;;;;27.00;46.00;;;;;;5068083;28;19948;-82
2022/03/21 12:38:56;;;;;;;;;;;26.90;46.00;;;;;;5080132;28;19912;-84
2022/03/21 12:41:22;;;;;;;;;;;26.70;46.80;;;;;;5077460;28;19996;-81
2022/03/21 12:43:52;;;;;;;;;;;26.70;46.90;;;;;;5077991;28;20460;-80
2022/03/21 12:46:19;;;;;;;;;;;26.60;46.40;;;;;;5078954;28;19920;-75
2022/03/21 12:48:46;;;;;;;;;;;26.60;47.50;;;;;;5083690;28;19959;-75
2022/03/21 12:51:15;;;;;;;;;;;26.50;47.10;;;;;;5078669;28;21226;-75
2022/03/21 12:53:45;;;;;;;;;;;26.40;47.50;;;;;;5066220;28;19913;-79
2022/03/21 12:56:12;;;;;;;;;;;26.30;47.60;;;;;;5079065;28;19960;-81
2022/03/21 12:58:41;;;;;;;;;;;26.20;47.00;;;;;;5078134;28;19958;-77
2022/03/21 13:01:07;;;;;;;;;;;26.10;48.50;;;;;;5064187;28;19984;-79
2022/03/21 13:03:32;;;;;;;;;;;26.00;47.40;;;;;;5069460;28;20327;-78
2022/03/21 13:11:35;;;;;;;;;;;25.20;48.10;;;;;;5082667;28;19920;-78
2022/03/21 13:14:05;;;;;;;;;;;25.10;48.30;;;;;;5065294;28;19912;-80
2022/03/21 13:16:38;;;;;;;;;;;24.90;48.00;;;;;;5073642;28;19938;-78
2022/03/21 13:19:06;;;;;;;;;;;24.70;48.50;;;;;;5077524;28;20019;-79
2022/03/21 13:21:34;;;;;;;;;;;24.40;48.40;;;;;;5077748;28;20454;-78
2022/03/21 13:24:00;;;;;;;;;;;24.20;48.60;;;;;;5079621;28;19913;-78
2022/03/21 13:26:27;;;;;;;;;;;23.90;48.50;;;;;;5075021;28;20294;-78
2022/03/21 13:28:53;;;;;;;;;;;23.60;49.10;;;;;;5080327;28;20336;-77
2022/03/21 13:31:20;;;;;;;;;;;23.20;50.20;;;;;;5077380;28;19913;-79
2022/03/21 13:33:56;;;;;;;;;;;23.00;50.30;;;;;;5078054;28;19917;-76
2022/03/21 13:36:23;;;;;;;;;;;22.80;50.50;;;;;;5082159;28;20011;-76
2022/03/21 13:39:09;;;;;;;;;;;22.60;51.00;;;;;;5085612;28;19912;-79
2022/03/21 13:41:53;;;;;;;;;;;22.40;51.80;;;;;;5065075;28;20357;-81
2022/03/21 13:44:22;;;;;;;;;;;22.30;51.80;;;;;;5061349;28;20434;-86
2022/03/21 13:47:07;;;;;;;;;;;22.20;52.00;;;;;;5051078;28;19921;-77
2022/03/21 13:49:42;;;;;;;;;;;22.00;52.30;;;;;;5067274;28;19917;-79
2022/03/21 13:52:08;;;;;;;;;;;22.00;52.00;;;;;;5069409;28;19915;-79
2022/03/21 13:55:07;;;;;;;;;;;21.90;52.50;;;;;;5076148;28;20003;-79
2022/03/21 13:57:43;;;;;;;;;;;21.70;52.60;;;;;;5017573;28;19941;-78
2022/03/21 14:00:10;;;;;;;;;;;21.60;53.00;;;;;;5068499;28;20257;-79
2022/03/21 14:02:46;;;;;;;;;;;21.50;53.20;;;;;;5080653;28;19908;-78
2022/03/21 14:05:14;;;;;;;;;;;21.40;53.20;;;;;;5080940;28;20513;-78
2022/03/21 14:07:40;;;;;;;;;;;21.30;53.40;;;;;;5080628;28;19939;-80
2022/03/21 14:10:13;;;;;;;;;;;21.10;53.00;;;;;;5062438;28;19908;-78
2022/03/21 14:12:40;;;;;;;;;;;21.10;52.90;;;;;;5062919;28;19994;-80
2022/03/21 14:15:06;;;;;;;;;;;21.00;52.70;;;;;;5062850;28;19909;-78
2022/03/21 14:17:31;;;;;;;;;;;20.90;53.10;;;;;;5080688;28;19999;-79
2022/03/21 14:19:57;;;;;;;;;;;20.90;52.90;;;;;;5080906;28;19915;-78
2022/03/21 14:22:22;;;;;;;;;;;20.80;53.00;;;;;;5080688;28;19915;-77
2022/03/21 14:24:48;;;;;;;;;;;20.70;52.90;;;;;;5080484;28;19915;-77
2022/03/21 14:27:14;;;;;;;;;;;20.60;53.20;;;;;;5080420;28;19908;-78
2022/03/21 14:29:39;;;;;;;;;;;20.60;53.70;;;;;;5080299;28;20003;-78
2022/03/21 14:32:07;;;;;;;;;;;20.50;53.80;;;;;;5080351;28;20019;-78
2022/03/21 14:34:33;;;;;;;;;;;20.50;53.80;;;;;;5072750;28;19909;-78
2022/03/21 14:36:59;;;;;;;;;;;20.50;54.10;;;;;;5090264;28;20141;-78
2022/03/21 14:39:25;;;;;;;;;;;20.40;53.80;;;;;;5079295;28;20461;-77
2022/03/21 14:41:51;;;;;;;;;;;20.40;54.10;;;;;;5080257;28;19970;-78
2022/03/21 14:44:18;;;;;;;;;;;20.40;54.20;;;;;;5079173;28;19915;-77
2022/03/21 14:46:44;;;;;;;;;;;20.40;54.40;;;;;;5079971;28;19921;-78
2022/03/21 14:49:10;;;;;;;;;;;20.30;54.70;;;;;;5080119;28;19935;-77
2022/03/21 14:51:38;;;;;;;;;;;20.30;54.50;;;;;;5080098;28;20359;-79
2022/03/21 14:54:04;;;;;;;;;;;20.20;54.50;;;;;;5080074;28;19962;-78
2022/03/21 14:56:32;;;;;;;;;;;20.20;54.70;;;;;;5079968;28;19908;-79
2022/03/21 14:58:58;;;;;;;;;;;20.20;54.80;;;;;;5080315;28;19913;-79